Time;durP1;ratioP1;P1;durP2;ratioP2;P2;SDS_P1;SDS_P2;PMS_P1;PMS_P2;Temp;Humidity;BMP_temperature;BMP_pressure;BME280_temperature;BME280_humidity;BME280_pressure;Samples;Min_cycle;Max_cycle;Signal;HPM_P1;HPM_P2
2022/06/29 00:00:03;;;;;;;3.33;1.83;;;17.40;90.10;;;;;;5108752;27;20072;-34
2022/06/29 00:02:29;;;;;;;4.70;1.80;;;17.40;90.30;;;;;;5102622;28;20495;-34
2022/06/29 00:04:57;;;;;;;4.47;1.77;;;17.40;90.40;;;;;;5100297;27;20097;-34
2022/06/29 00:07:24;;;;;;;7.63;2.17;;;17.40;90.40;;;;;;5110093;27;20082;-34
2022/06/29 00:09:51;;;;;;;4.93;2.22;;;17.40;90.70;;;;;;5115701;28;20073;-35
2022/06/29 00:12:18;;;;;;;4.88;1.58;;;17.30;90.70;;;;;;5112173;28;20082;-34
2022/06/29 00:14:45;;;;;;;4.97;1.77;;;17.30;90.90;;;;;;5111950;28;20059;-34
2022/06/29 00:17:11;;;;;;;4.95;1.60;;;17.30;90.90;;;;;;5097368;27;20052;-34
2022/06/29 00:19:38;;;;;;;4.97;2.00;;;17.20;91.00;;;;;;5097174;28;20479;-34
2022/06/29 00:22:07;;;;;;;2.83;1.55;;;17.20;91.20;;;;;;5103978;28;20052;-34
2022/06/29 00:24:33;;;;;;;3.88;1.65;;;17.20;91.50;;;;;;5111781;27;20102;-34
2022/06/29 00:27:00;;;;;;;4.70;2.00;;;17.20;91.20;;;;;;5109821;27;20052;-33
2022/06/29 00:29:27;;;;;;;3.88;1.58;;;17.10;91.30;;;;;;5108874;27;20122;-34
2022/06/29 00:31:54;;;;;;;5.30;1.60;;;17.10;91.40;;;;;;5104570;27;20071;-34
2022/06/29 00:34:21;;;;;;;5.10;1.48;;;17.10;91.20;;;;;;5094716;28;20083;-35
2022/06/29 00:36:48;;;;;;;3.35;1.85;;;17.10;91.50;;;;;;5093904;28;20121;-34
2022/06/29 00:39:16;;;;;;;5.10;2.00;;;17.00;91.70;;;;;;5111669;27;20051;-35
2022/06/29 00:41:44;;;;;;;6.80;1.63;;;17.00;92.00;;;;;;5111897;27;20108;-35
2022/06/29 00:44:13;;;;;;;3.67;1.77;;;16.90;92.00;;;;;;5099869;28;20054;-34
2022/06/29 00:46:41;;;;;;;6.22;1.60;;;16.90;91.90;;;;;;5100791;28;20491;-35
2022/06/29 00:49:08;;;;;;;6.55;1.90;;;17.00;91.70;;;;;;5096922;28;20133;-35
2022/06/29 00:51:35;;;;;;;3.72;1.80;;;16.90;92.20;;;;;;5110611;28;20491;-35
2022/06/29 00:54:03;;;;;;;4.63;1.90;;;16.90;92.30;;;;;;5099387;27;20052;-35
2022/06/29 00:56:31;;;;;;;4.47;2.33;;;16.80;92.70;;;;;;5096568;28;20086;-32
2022/06/29 00:58:58;;;;;;;5.13;1.60;;;16.80;92.80;;;;;;5113623;27;20048;-33
2022/06/29 01:01:24;;;;;;;3.53;1.70;;;16.80;92.70;;;;;;5108912;28;20085;-34
2022/06/29 01:03:51;;;;;;;8.35;2.50;;;16.80;92.60;;;;;;5099769;27;20048;-34
2022/06/29 01:06:18;;;;;;;6.38;1.85;;;16.70;93.00;;;;;;5092775;27;20076;-35
2022/06/29 01:08:45;;;;;;;5.22;2.15;;;16.70;93.10;;;;;;5097340;27;20076;-34
2022/06/29 01:11:12;;;;;;;6.65;2.85;;;16.70;93.20;;;;;;5103818;28;20075;-34
2022/06/29 01:13:43;;;;;;;5.47;1.95;;;16.70;93.50;;;;;;5113030;28;20075;-35
2022/06/29 01:16:10;;;;;;;5.65;2.40;;;16.60;93.30;;;;;;5106147;27;20066;-35
2022/06/29 01:18:37;;;;;;;9.93;1.77;;;16.60;93.80;;;;;;5096938;28;20047;-34
2022/06/29 01:21:05;;;;;;;3.50;1.80;;;16.50;94.00;;;;;;5102924;27;20044;-34
2022/06/29 01:23:33;;;;;;;5.63;2.42;;;16.50;94.10;;;;;;5110777;28;20418;-35
2022/06/29 01:26:04;;;;;;;10.02;2.67;;;16.50;94.50;;;;;;5112983;28;20079;-34
2022/06/29 01:28:31;;;;;;;6.35;2.17;;;16.50;94.70;;;;;;5105789;27;20040;-34
2022/06/29 01:30:57;;;;;;;6.93;2.55;;;16.40;94.30;;;;;;5110211;28;20091;-34
2022/06/29 01:33:24;;;;;;;5.32;2.50;;;16.40;94.70;;;;;;5111182;28;20051;-33
2022/06/29 01:35:51;;;;;;;4.40;2.47;;;16.40;94.90;;;;;;5110706;28;20079;-33
2022/06/29 01:38:18;;;;;;;6.10;2.13;;;16.40;94.70;;;;;;5106766;27;20039;-34
2022/06/29 01:40:46;;;;;;;8.85;2.65;;;16.40;94.70;;;;;;5108858;28;20128;-33
2022/06/29 01:43:13;;;;;;;2.83;2.00;;;16.40;94.90;;;;;;5094907;28;20522;-34
2022/06/29 01:45:39;;;;;;;5.93;1.77;;;16.30;94.70;;;;;;5112523;28;20051;-34
2022/06/29 01:48:06;;;;;;;6.97;2.20;;;16.30;95.00;;;;;;5102380;27;20476;-33
2022/06/29 01:50:33;;;;;;;9.52;2.10;;;16.30;94.70;;;;;;5111952;28;20051;-34
2022/06/29 01:53:00;;;;;;;8.70;2.50;;;16.30;94.70;;;;;;5104356;28;20048;-33
2022/06/29 01:55:27;;;;;;;5.70;2.30;;;16.30;94.90;;;;;;5093045;28;20048;-34
2022/06/29 01:57:55;;;;;;;5.32;2.60;;;16.30;94.90;;;;;;5099014;28;20044;-33
2022/06/29 02:00:21;;;;;;;3.53;2.17;;;16.30;95.10;;;;;;5093688;28;20052;-34
2022/06/29 02:02:48;;;;;;;3.95;2.30;;;16.20;94.90;;;;;;5096587;28;20101;-34
2022/06/29 02:05:15;;;;;;;6.13;2.78;;;16.20;94.70;;;;;;5129692;27;20080;-34
2022/06/29 02:07:42;;;;;;;4.53;2.50;;;16.20;95.00;;;;;;5108555;28;20058;-33
2022/06/29 02:10:09;;;;;;;5.38;2.80;;;16.20;95.10;;;;;;5102470;28;20105;-34
2022/06/29 02:12:36;;;;;;;6.07;2.15;;;16.20;95.40;;;;;;5101572;28;20126;-34
2022/06/29 02:15:05;;;;;;;5.25;2.60;;;16.20;95.20;;;;;;5109241;28;20086;-33
2022/06/29 02:17:33;;;;;;;3.78;2.42;;;16.20;95.30;;;;;;5099224;28;20097;-34
2022/06/29 02:20:00;;;;;;;5.78;2.10;;;16.20;95.00;;;;;;5103013;28;20078;-34
2022/06/29 02:22:27;;;;;;;4.93;3.13;;;16.20;95.20;;;;;;5103487;28;20388;-34
2022/06/29 02:24:53;;;;;;;6.60;2.90;;;16.30;95.30;;;;;;5092623;28;20048;-33
2022/06/29 02:27:20;;;;;;;5.30;2.83;;;16.20;95.60;;;;;;5106436;28;20075;-34
2022/06/29 02:29:47;;;;;;;4.65;2.78;;;16.20;95.80;;;;;;5125260;27;20123;-35
2022/06/29 02:34:59;;;;;;;6.55;3.33;;;16.30;95.50;;;;;;5092293;28;20048;-35
2022/06/29 02:37:26;;;;;;;7.18;3.40;;;16.30;95.90;;;;;;5101130;28;20131;-35
2022/06/29 02:39:53;;;;;;;7.10;2.90;;;16.30;96.20;;;;;;5105519;28;20072;-34
2022/06/29 02:42:20;;;;;;;3.45;2.38;;;16.30;96.60;;;;;;5090964;28;20083;-34
2022/06/29 02:44:47;;;;;;;5.20;2.92;;;16.30;96.10;;;;;;5126748;28;20484;-34
2022/06/29 02:47:16;;;;;;;5.30;2.55;;;16.30;96.30;;;;;;5096373;28;20102;-34
2022/06/29 02:49:43;;;;;;;5.30;2.50;;;16.30;96.50;;;;;;5109759;28;20055;-34
2022/06/29 02:52:10;;;;;;;5.38;3.00;;;16.30;96.10;;;;;;5092395;28;20544;-34
2022/06/29 02:54:37;;;;;;;5.10;2.30;;;16.20;96.10;;;;;;5125192;27;20453;-34
2022/06/29 02:57:04;;;;;;;4.85;2.60;;;16.30;96.00;;;;;;5092156;28;20110;-34
2022/06/29 02:59:31;;;;;;;4.35;3.22;;;16.30;95.80;;;;;;5105100;28;20079;-34
2022/06/29 03:01:58;;;;;;;7.10;3.08;;;16.30;96.10;;;;;;5092381;28;20116;-34
2022/06/29 03:04:26;;;;;;;5.97;3.33;;;16.20;96.20;;;;;;5092441;28;20056;-34
2022/06/29 03:06:53;;;;;;;4.63;3.10;;;16.20;96.50;;;;;;5093213;28;20509;-34
2022/06/29 03:09:19;;;;;;;7.10;3.30;;;16.20;96.30;;;;;;5107832;28;20044;-34
2022/06/29 03:11:46;;;;;;;4.85;3.05;;;16.10;96.60;;;;;;5094982;28;20052;-34
2022/06/29 03:14:13;;;;;;;7.43;3.58;;;16.10;96.80;;;;;;5095875;27;20133;-33
2022/06/29 03:16:40;;;;;;;5.95;3.30;;;16.10;97.00;;;;;;5128886;27;20079;-35
2022/06/29 03:19:06;;;;;;;7.60;3.25;;;16.00;96.90;;;;;;5105915;27;20088;-35
2022/06/29 03:21:35;;;;;;;4.22;2.83;;;16.10;97.00;;;;;;5096222;28;20128;-35
2022/06/29 03:24:03;;;;;;;3.47;2.25;;;16.10;96.80;;;;;;5107602;28;20542;-35
2022/06/29 03:26:30;;;;;;;5.32;2.60;;;16.10;96.20;;;;;;5116255;28;20112;-37
2022/06/29 03:28:57;;;;;;;4.10;3.15;;;16.00;96.30;;;;;;5109339;27;20047;-34
2022/06/29 03:31:24;;;;;;;6.15;3.03;;;16.00;96.30;;;;;;5109104;27;20101;-34
2022/06/29 03:33:51;;;;;;;5.63;3.00;;;16.00;96.30;;;;;;5105771;28;20082;-34
2022/06/29 03:36:17;;;;;;;4.50;3.03;;;16.00;96.20;;;;;;5104440;27;20056;-34
2022/06/29 03:38:45;;;;;;;4.22;2.88;;;16.00;96.20;;;;;;5103527;27;20071;-34
2022/06/29 03:41:12;;;;;;;3.53;2.20;;;16.00;96.30;;;;;;5113988;28;20051;-34
2022/06/29 03:43:39;;;;;;;7.78;2.78;;;15.90;96.00;;;;;;5098260;27;20139;-35
2022/06/29 03:46:06;;;;;;;6.97;3.25;;;15.90;95.90;;;;;;5100849;27;20040;-34
2022/06/29 03:48:33;;;;;;;6.28;4.00;;;15.90;96.10;;;;;;5104190;27;20131;-34
2022/06/29 03:51:00;;;;;;;5.60;3.70;;;15.90;96.50;;;;;;5095433;28;20108;-33
2022/06/29 03:53:27;;;;;;;5.28;3.20;;;15.90;96.80;;;;;;5105002;27;20400;-33
2022/06/29 03:55:56;;;;;;;5.57;3.40;;;15.90;96.60;;;;;;5105616;27;20442;-33
2022/06/29 03:58:23;;;;;;;6.40;3.05;;;15.80;96.60;;;;;;5095571;28;20048;-34
2022/06/29 04:00:49;;;;;;;6.22;3.25;;;15.90;96.50;;;;;;5105294;28;20048;-34
2022/06/29 04:03:16;;;;;;;5.55;3.75;;;15.80;96.50;;;;;;5096416;28;20126;-34
2022/06/29 04:05:43;;;;;;;5.78;3.20;;;15.90;96.90;;;;;;5103431;28;20478;-33
2022/06/29 04:08:11;;;;;;;6.95;3.78;;;15.80;96.70;;;;;;5111011;27;20073;-33
2022/06/29 04:10:37;;;;;;;7.05;2.90;;;15.80;97.00;;;;;;5104377;27;20047;-34
2022/06/29 04:13:05;;;;;;;6.53;3.55;;;15.80;96.80;;;;;;5097424;27;20157;-34
2022/06/29 04:15:32;;;;;;;5.90;3.88;;;15.80;97.10;;;;;;5108164;27;20570;-35
2022/06/29 04:17:59;;;;;;;7.70;3.83;;;15.80;97.10;;;;;;5100978;28;20131;-34
2022/06/29 04:23:10;;;;;;;4.47;3.95;;;15.80;97.60;;;;;;5106258;28;20047;-35
2022/06/29 04:25:37;;;;;;;5.57;3.78;;;15.80;97.60;;;;;;5114775;28;20040;-34
2022/06/29 04:28:06;;;;;;;9.88;4.18;;;15.80;97.70;;;;;;5106758;27;20091;-34
2022/06/29 04:30:33;;;;;;;6.55;4.05;;;15.80;97.90;;;;;;5097039;28;20097;-35
2022/06/29 04:33:00;;;;;;;5.78;3.60;;;15.80;97.90;;;;;;5115111;28;20127;-34
2022/06/29 04:35:27;;;;;;;9.70;4.53;;;15.80;98.00;;;;;;5105462;27;20082;-34
2022/06/29 04:37:53;;;;;;;5.70;4.20;;;15.80;98.10;;;;;;5093253;27;20047;-34
2022/06/29 04:40:20;;;;;;;5.57;3.50;;;15.90;98.20;;;;;;5094960;28;20087;-35
2022/06/29 04:42:47;;;;;;;8.60;4.03;;;15.90;98.00;;;;;;5093104;27;20553;-35
2022/06/29 04:47:59;;;;;;;6.32;4.13;;;16.00;98.20;;;;;;5095785;27;20056;-35
2022/06/29 04:50:26;;;;;;;9.82;4.40;;;16.00;98.30;;;;;;5114595;28;20051;-35
2022/06/29 04:52:52;;;;;;;7.68;4.75;;;16.00;98.30;;;;;;5113677;28;20543;-35
2022/06/29 04:55:19;;;;;;;7.80;4.15;;;16.00;98.30;;;;;;5114894;28;20044;-36
2022/06/29 04:57:46;;;;;;;10.02;4.72;;;16.00;98.40;;;;;;5099164;28;20127;-34
2022/06/29 05:00:15;;;;;;;7.55;4.28;;;16.10;98.40;;;;;;5095772;28;20076;-34
2022/06/29 05:02:42;;;;;;;7.03;4.10;;;16.10;98.40;;;;;;5093931;27;20080;-34
2022/06/29 05:05:09;;;;;;;6.65;4.53;;;16.10;98.50;;;;;;5101753;28;20380;-34
2022/06/29 05:07:36;;;;;;;10.65;4.25;;;16.20;98.50;;;;;;5102781;27;20055;-34
2022/06/29 05:10:03;;;;;;;9.75;4.38;;;16.20;98.40;;;;;;5106245;27;20054;-33
2022/06/29 05:12:30;;;;;;;7.53;4.10;;;16.30;98.50;;;;;;5107712;28;20043;-35
2022/06/29 05:14:57;;;;;;;5.75;4.50;;;16.30;98.40;;;;;;5105243;28;20090;-34
2022/06/29 05:17:26;;;;;;;8.40;4.60;;;16.40;98.40;;;;;;5110279;28;20051;-35
2022/06/29 05:19:53;;;;;;;6.05;4.40;;;16.40;98.50;;;;;;5112482;28;20047;-34
2022/06/29 05:22:20;;;;;;;8.43;4.57;;;16.50;98.40;;;;;;5108547;28;20047;-34
2022/06/29 05:24:47;;;;;;;8.85;4.78;;;16.60;98.30;;;;;;5114650;27;20089;-34
2022/06/29 05:27:13;;;;;;;6.20;4.32;;;16.70;98.20;;;;;;5112922;28;20090;-34
2022/06/29 05:29:40;;;;;;;7.90;4.13;;;16.70;98.10;;;;;;5112172;28;20411;-34
2022/06/29 05:32:09;;;;;;;8.88;4.60;;;16.80;98.10;;;;;;5103159;28;20126;-34
2022/06/29 05:34:37;;;;;;;8.20;4.00;;;16.90;97.90;;;;;;5102616;27;20484;-34
2022/06/29 05:37:04;;;;;;;7.07;4.50;;;17.00;97.80;;;;;;5103801;27;20089;-34
2022/06/29 05:39:31;;;;;;;6.85;4.43;;;17.20;97.70;;;;;;5093342;28;20091;-34
2022/06/29 05:41:58;;;;;;;6.85;4.10;;;17.30;97.70;;;;;;5106260;28;20090;-34
2022/06/29 05:44:25;;;;;;;12.02;4.15;;;17.40;97.50;;;;;;5112766;28;20441;-34
2022/06/29 05:46:51;;;;;;;5.97;4.43;;;17.50;97.20;;;;;;5113937;28;20075;-35
2022/06/29 05:49:18;;;;;;;5.90;4.15;;;17.60;97.10;;;;;;5101994;27;20469;-34
2022/06/29 05:51:46;;;;;;;6.10;3.65;;;17.70;97.00;;;;;;5107338;27;20551;-34
2022/06/29 05:54:13;;;;;;;4.65;4.05;;;17.80;96.70;;;;;;5094421;28;20089;-34
2022/06/29 05:56:40;;;;;;;6.97;4.00;;;17.90;96.70;;;;;;5098649;27;20507;-33
2022/06/29 05:59:07;;;;;;;8.05;3.50;;;18.10;96.30;;;;;;5101215;28;20054;-34
2022/06/29 06:01:34;;;;;;;5.25;3.60;;;18.20;96.10;;;;;;5104496;27;20044;-34
2022/06/29 06:04:01;;;;;;;7.47;3.65;;;18.30;96.00;;;;;;5104989;28;20051;-34
2022/06/29 06:06:27;;;;;;;9.05;4.03;;;18.40;96.00;;;;;;5098698;28;20059;-35
2022/06/29 06:08:55;;;;;;;8.80;3.38;;;18.50;95.80;;;;;;5113239;28;20086;-35
2022/06/29 06:11:22;;;;;;;7.90;3.33;;;18.70;95.90;;;;;;5110607;28;20124;-34
2022/06/29 06:13:49;;;;;;;7.40;3.40;;;18.80;95.20;;;;;;5112901;28;20051;-34
2022/06/29 06:16:16;;;;;;;9.48;3.35;;;18.90;94.90;;;;;;5113076;28;20376;-34
2022/06/29 06:18:43;;;;;;;6.47;2.92;;;19.00;94.40;;;;;;5111919;28;20055;-35
2022/06/29 06:21:09;;;;;;;4.43;2.97;;;19.10;94.30;;;;;;5099463;28;20126;-35
2022/06/29 06:23:36;;;;;;;5.03;3.20;;;19.20;94.40;;;;;;5108651;28;20097;-34
2022/06/29 06:26:04;;;;;;;6.97;3.65;;;19.40;94.30;;;;;;5112171;28;20048;-35
2022/06/29 06:28:31;;;;;;;9.13;3.58;;;19.50;94.00;;;;;;5112021;28;20055;-34
2022/06/29 06:30:58;;;;;;;8.32;2.80;;;19.60;93.80;;;;;;5103887;28;20047;-34
2022/06/29 06:33:25;;;;;;;6.78;3.47;;;19.70;93.90;;;;;;5112814;28;20082;-34
2022/06/29 06:35:57;;;;;;;9.20;3.38;;;19.90;93.60;;;;;;5094512;28;20077;-35
2022/06/29 06:38:24;;;;;;;4.57;3.20;;;20.00;93.60;;;;;;5092562;28;20083;-35
2022/06/29 06:43:37;;;;;;;4.05;2.97;;;20.30;92.60;;;;;;5113697;28;20047;-35
2022/06/29 06:46:05;;;;;;;5.90;2.80;;;20.40;92.20;;;;;;5099319;27;20539;-35
2022/06/29 06:48:32;;;;;;;4.95;3.08;;;20.50;92.40;;;;;;5095680;28;20491;-35
2022/06/29 06:50:58;;;;;;;6.28;3.10;;;20.60;91.70;;;;;;5096635;28;20074;-35
2022/06/29 06:53:26;;;;;;;7.90;2.92;;;20.70;91.80;;;;;;5096595;28;20151;-35
2022/06/29 06:55:53;;;;;;;6.18;2.53;;;20.90;91.40;;;;;;5095949;28;20055;-35
2022/06/29 06:58:19;;;;;;;5.65;2.17;;;21.00;91.00;;;;;;5116625;28;20075;-35
2022/06/29 07:00:47;;;;;;;7.43;2.67;;;21.10;91.10;;;;;;5110462;27;20043;-36
2022/06/29 07:03:14;;;;;;;4.07;2.38;;;21.30;90.60;;;;;;5113900;28;20434;-35
2022/06/29 07:05:41;;;;;;;7.65;2.60;;;21.40;90.20;;;;;;5115744;28;20463;-34
2022/06/29 07:08:08;;;;;;;7.50;2.25;;;21.50;88.90;;;;;;5098452;28;20113;-36
2022/06/29 07:10:35;;;;;;;4.25;2.38;;;21.60;88.00;;;;;;5094815;28;20135;-35
2022/06/29 07:13:01;;;;;;;6.22;2.67;;;21.70;87.90;;;;;;5095002;28;20048;-35
2022/06/29 07:15:28;;;;;;;6.65;2.47;;;21.80;87.40;;;;;;5096103;28;20794;-35
2022/06/29 07:17:56;;;;;;;8.02;2.08;;;21.90;87.40;;;;;;5106574;28;20052;-35
2022/06/29 07:20:28;;;;;;;5.03;2.10;;;22.00;86.90;;;;;;5097156;28;20082;-35
2022/06/29 07:22:55;;;;;;;6.07;1.77;;;22.20;86.00;;;;;;5095982;28;20119;-35
2022/06/29 07:25:24;;;;;;;2.83;1.95;;;22.30;85.80;;;;;;5110250;28;20187;-35
2022/06/29 07:27:54;;;;;;;8.63;2.45;;;22.50;85.60;;;;;;5116003;28;20135;-36
2022/06/29 07:30:21;;;;;;;5.40;1.80;;;22.70;83.80;;;;;;5113851;28;20084;-35
2022/06/29 07:32:47;;;;;;;7.20;2.13;;;22.80;83.50;;;;;;5113410;28;20082;-36
2022/06/29 07:35:16;;;;;;;4.32;1.80;;;22.90;82.90;;;;;;5116133;28;20090;-35
2022/06/29 07:37:43;;;;;;;5.32;1.90;;;23.00;81.60;;;;;;5115333;28;20076;-35
2022/06/29 07:40:10;;;;;;;2.65;2.00;;;23.00;81.90;;;;;;5097803;27;20043;-35
2022/06/29 07:42:38;;;;;;;4.88;1.90;;;23.20;82.00;;;;;;5114937;28;20083;-35
2022/06/29 07:45:06;;;;;;;3.80;2.05;;;23.30;81.20;;;;;;5113815;28;20087;-35
2022/06/29 07:47:32;;;;;;;3.95;1.88;;;23.40;80.70;;;;;;5115404;27;20047;-36
2022/06/29 07:49:59;;;;;;;3.42;1.90;;;23.50;80.20;;;;;;5115598;28;20517;-35
2022/06/29 07:52:27;;;;;;;5.18;1.58;;;23.70;79.60;;;;;;5115835;28;20090;-35
2022/06/29 07:54:54;;;;;;;4.35;1.63;;;23.80;80.00;;;;;;5106129;28;20071;-35
2022/06/29 07:57:21;;;;;;;3.28;1.50;;;24.00;79.70;;;;;;5101979;28;20086;-35
2022/06/29 07:59:48;;;;;;;5.45;1.40;;;24.10;80.10;;;;;;5114505;28;20138;-36
2022/06/29 08:02:15;;;;;;;3.17;1.63;;;24.30;80.20;;;;;;5114807;28;20087;-36
2022/06/29 08:04:41;;;;;;;3.08;1.48;;;24.40;78.70;;;;;;5115621;28;20133;-36
2022/06/29 08:07:08;;;;;;;4.07;1.60;;;24.60;78.50;;;;;;5107431;27;20079;-36
2022/06/29 08:09:37;;;;;;;5.28;1.48;;;24.60;77.60;;;;;;5105361;28;20047;-36
2022/06/29 08:12:04;;;;;;;3.40;1.35;;;24.70;78.10;;;;;;5114202;28;20575;-36
2022/06/29 08:14:31;;;;;;;3.85;1.70;;;24.80;78.80;;;;;;5115457;28;20143;-36
2022/06/29 08:16:58;;;;;;;4.50;1.55;;;24.90;77.60;;;;;;5115537;28;20055;-36
2022/06/29 08:19:24;;;;;;;3.10;1.98;;;25.00;76.70;;;;;;5100712;28;20523;-35
2022/06/29 08:21:51;;;;;;;8.00;2.13;;;24.90;75.90;;;;;;5104278;27;20504;-35
2022/06/29 08:24:18;;;;;;;3.95;1.77;;;25.00;75.90;;;;;;5113768;28;20454;-36
2022/06/29 08:26:46;;;;;;;5.30;1.80;;;25.00;75.80;;;;;;5113990;28;20051;-35
2022/06/29 08:29:13;;;;;;;7.78;2.38;;;25.10;76.20;;;;;;5113070;28;20132;-36
2022/06/29 08:31:40;;;;;;;2.97;1.52;;;25.30;75.80;;;;;;5113906;28;20051;-37
2022/06/29 08:34:07;;;;;;;2.42;1.55;;;25.60;76.30;;;;;;5115086;28;20113;-35
2022/06/29 08:36:33;;;;;;;5.10;1.80;;;25.80;76.10;;;;;;5112053;28;20055;-36
2022/06/29 08:39:01;;;;;;;2.55;1.75;;;26.00;73.50;;;;;;5099760;28;20105;-38
2022/06/29 08:41:28;;;;;;;7.32;2.05;;;26.10;72.60;;;;;;5111288;28;20127;-36
2022/06/29 08:43:57;;;;;;;3.90;1.50;;;26.20;72.20;;;;;;5115003;28;20048;-36
2022/06/29 08:46:24;;;;;;;4.57;1.92;;;26.30;71.20;;;;;;5111365;28;20128;-35
2022/06/29 08:48:50;;;;;;;5.85;2.10;;;26.30;71.60;;;;;;5114819;28;20134;-35
2022/06/29 08:51:18;;;;;;;3.72;1.42;;;26.30;71.30;;;;;;5113459;27;20079;-36
2022/06/29 08:53:44;;;;;;;5.00;1.80;;;26.30;71.90;;;;;;5094381;28;20491;-36
2022/06/29 08:56:11;;;;;;;2.33;1.50;;;26.30;69.90;;;;;;5098391;28;20097;-36
2022/06/29 08:58:38;;;;;;;8.45;1.70;;;26.30;70.10;;;;;;5113827;28;20091;-36
2022/06/29 09:01:06;;;;;;;3.67;1.65;;;26.40;67.50;;;;;;5114375;27;20128;-36
2022/06/29 09:03:33;;;;;;;6.18;1.80;;;26.30;66.70;;;;;;5113714;28;20540;-35
2022/06/29 09:06:01;;;;;;;2.67;1.63;;;26.40;67.90;;;;;;5112114;28;20437;-35
2022/06/29 09:08:28;;;;;;;4.05;1.52;;;26.40;67.00;;;;;;5103573;28;20048;-35
2022/06/29 09:10:55;;;;;;;3.85;1.65;;;26.40;65.70;;;;;;5093612;28;20075;-36
2022/06/29 09:13:22;;;;;;;6.45;2.15;;;26.50;66.80;;;;;;5093000;28;20565;-35
2022/06/29 09:15:48;;;;;;;4.75;2.00;;;26.50;66.10;;;;;;5094273;28;20142;-35
2022/06/29 09:18:25;;;;;;;3.92;2.15;;;26.70;67.40;;;;;;5095271;28;20052;-36
2022/06/29 09:20:55;;;;;;;3.20;2.00;;;26.80;65.90;;;;;;5093698;28;20127;-35
2022/06/29 09:23:22;;;;;;;4.32;1.88;;;26.90;65.90;;;;;;5099215;28;20040;-35
2022/06/29 09:25:49;;;;;;;3.70;1.83;;;27.10;66.60;;;;;;5106339;28;20114;-36
2022/06/29 09:28:20;;;;;;;4.40;1.55;;;27.20;65.50;;;;;;5114021;28;20040;-35
2022/06/29 09:30:47;;;;;;;4.68;1.75;;;27.30;65.30;;;;;;5112855;28;20066;-36
2022/06/29 09:33:14;;;;;;;4.95;1.90;;;27.50;64.10;;;;;;5112808;28;20067;-36
2022/06/29 09:35:42;;;;;;;3.20;1.70;;;27.50;63.70;;;;;;5101632;28;20044;-36
2022/06/29 09:38:22;;;;;;;4.50;1.58;;;27.50;63.70;;;;;;5108299;28;20044;-36
2022/06/29 09:40:59;;;;;;;3.47;1.50;;;27.50;63.30;;;;;;5112319;28;20083;-36
2022/06/29 09:43:27;;;;;;;6.70;1.80;;;27.50;62.70;;;;;;5110873;28;20048;-36
2022/06/29 09:45:54;;;;;;;5.20;1.90;;;27.50;62.30;;;;;;5093211;28;20499;-36
2022/06/29 09:48:23;;;;;;;3.75;1.75;;;27.70;62.40;;;;;;5093249;28;20048;-36
2022/06/29 09:50:51;;;;;;;2.05;1.63;;;27.90;61.10;;;;;;5107286;28;20075;-36
2022/06/29 09:53:18;;;;;;;1.60;1.48;;;28.10;60.10;;;;;;5112607;28;20044;-36
2022/06/29 09:55:45;;;;;;;4.35;1.67;;;28.20;59.70;;;;;;5113448;28;20055;-36
2022/06/29 09:58:12;;;;;;;5.18;1.85;;;28.20;58.80;;;;;;5109836;28;20051;-37
2022/06/29 10:03:23;;;;;;;3.17;1.58;;;28.30;59.60;;;;;;5112842;28;20046;-35
2022/06/29 10:06:04;;;;;;;2.65;1.70;;;28.40;59.90;;;;;;5113512;28;20135;-34
2022/06/29 10:08:32;;;;;;;2.25;1.70;;;28.50;59.10;;;;;;5111386;28;20036;-37
2022/06/29 10:11:01;;;;;;;5.32;1.70;;;28.50;57.90;;;;;;5111428;28;20096;-36
2022/06/29 10:13:41;;;;;;;2.45;1.60;;;28.60;58.90;;;;;;5112035;28;20054;-35
2022/06/29 10:16:18;;;;;;;2.60;1.70;;;28.70;59.10;;;;;;5137875;27;20522;-36
2022/06/29 10:18:53;;;;;;;2.45;1.48;;;28.80;58.90;;;;;;5097124;28;20081;-35
2022/06/29 10:21:23;;;;;;;4.57;1.40;;;28.90;57.90;;;;;;5113092;28;20044;-36
2022/06/29 10:23:51;;;;;;;4.60;1.83;;;29.10;58.40;;;;;;5111628;28;20151;-36
2022/06/29 10:26:45;;;;;;;5.75;1.70;;;29.30;57.50;;;;;;5110480;28;20559;-36
2022/06/29 10:29:31;;;;;;;3.20;1.75;;;29.60;58.30;;;;;;5097491;28;20458;-35
2022/06/29 10:32:47;;;;;;;3.03;1.80;;;29.70;57.40;;;;;;5125581;27;20044;-35
2022/06/29 10:35:14;;;;;;;4.68;2.08;;;29.70;57.20;;;;;;5089271;28;20151;-37
2022/06/29 10:37:52;;;;;;;4.65;1.80;;;29.70;57.00;;;;;;5091086;28;20083;-36
2022/06/29 10:40:20;;;;;;;4.32;1.73;;;29.90;57.10;;;;;;5112922;28;20047;-36
2022/06/29 10:45:35;;;;;;;4.10;1.50;;;30.10;55.70;;;;;;5093312;28;20052;-36
2022/06/29 10:48:12;;;;;;;;;;;30.20;56.90;;;;;;5092736;28;20044;-37
2022/06/29 10:50:39;;;;;;;6.30;1.90;;;30.10;54.30;;;;;;5111625;28;19965;-36
2022/06/29 10:53:08;;;;;;;4.88;2.00;;;30.10;56.50;;;;;;5091967;28;20048;-37
2022/06/29 10:55:35;;;;;;;3.40;1.73;;;30.20;55.60;;;;;;5091087;28;20097;-37
2022/06/29 10:58:02;;;;;;;4.35;1.73;;;30.40;56.10;;;;;;5095776;28;20043;-36
2022/06/29 11:00:30;;;;;;;3.83;1.83;;;30.50;53.90;;;;;;5104778;28;20047;-36
2022/06/29 11:02:57;;;;;;;4.10;1.70;;;30.60;53.10;;;;;;5112916;28;20051;-36
2022/06/29 11:05:24;;;;;;;4.05;1.80;;;30.70;52.40;;;;;;5112849;28;20433;-36
2022/06/29 11:13:22;;;;;;;4.90;1.80;;;30.80;52.60;;;;;;5112600;28;20063;-36
2022/06/29 11:15:50;;;;;;;2.95;2.17;;;31.00;51.90;;;;;;5107299;28;20055;-36
2022/06/29 11:18:18;;;;;;;3.65;1.90;;;31.10;51.60;;;;;;5097519;28;20084;-36
2022/06/29 11:20:45;;;;;;;7.72;2.08;;;31.20;51.80;;;;;;5091594;28;20130;-36
2022/06/29 11:23:13;;;;;;;4.60;2.30;;;31.00;50.90;;;;;;5102607;28;20109;-36
2022/06/29 11:25:42;;;;;;;2.63;2.15;;;30.80;51.10;;;;;;5109889;28;20066;-36
2022/06/29 11:28:08;;;;;;;7.72;2.20;;;30.60;51.40;;;;;;5112520;28;20058;-36
2022/06/29 11:30:35;;;;;;;2.95;1.65;;;30.50;52.00;;;;;;5114194;28;20202;-36
2022/06/29 11:33:10;;;;;;;6.55;2.38;;;30.50;52.20;;;;;;5108521;28;20048;-36
2022/06/29 11:35:37;;;;;;;2.75;1.98;;;30.60;52.30;;;;;;5114670;27;20051;-37
2022/06/29 11:38:05;;;;;;;4.47;2.08;;;30.50;53.80;;;;;;5116465;28;20093;-36
2022/06/29 11:40:33;;;;;;;4.00;2.08;;;30.40;53.30;;;;;;5113886;28;20123;-36
2022/06/29 11:43:08;;;;;;;3.78;2.40;;;30.30;53.50;;;;;;5097541;27;20048;-36
2022/06/29 11:45:39;;;;;;;6.57;2.20;;;30.40;53.40;;;;;;5108113;28;20051;-37
2022/06/29 11:48:11;;;;;;;6.35;2.30;;;30.30;54.40;;;;;;5115040;28;20056;-37
2022/06/29 11:50:46;;;;;;;3.53;2.75;;;30.30;53.50;;;;;;5099971;27;20078;-37
2022/06/29 11:53:13;;;;;;;4.57;2.47;;;30.20;53.20;;;;;;5094610;28;20472;-36
2022/06/29 11:55:40;;;;;;;4.93;2.30;;;30.20;52.90;;;;;;5094334;28;20048;-37
2022/06/29 11:58:11;;;;;;;4.13;2.35;;;30.30;53.80;;;;;;5109640;28;20056;-37
2022/06/29 12:00:39;;;;;;;3.97;2.40;;;30.40;54.20;;;;;;5115875;28;20092;-37
2022/06/29 12:03:06;;;;;;;7.82;2.90;;;30.40;53.90;;;;;;5114719;28;20117;-37
2022/06/29 12:05:32;;;;;;;5.95;2.50;;;30.50;53.10;;;;;;5096330;28;20056;-36
2022/06/29 12:07:59;;;;;;;10.80;3.10;;;30.50;53.40;;;;;;5094462;28;20436;-36
2022/06/29 12:10:26;;;;;;;7.78;2.90;;;30.60;54.00;;;;;;5108556;28;20052;-36
2022/06/29 12:12:53;;;;;;;3.13;2.55;;;30.70;53.70;;;;;;5094412;28;20040;-37
2022/06/29 12:15:21;;;;;;;5.43;2.50;;;30.90;54.00;;;;;;5096084;28;20135;-37
2022/06/29 12:17:48;;;;;;;5.13;2.65;;;31.10;54.00;;;;;;5096992;27;20101;-36
2022/06/29 12:20:14;;;;;;;5.80;2.83;;;31.20;52.90;;;;;;5108321;27;20105;-36
2022/06/29 12:22:41;;;;;;;5.60;2.95;;;31.20;52.70;;;;;;5114498;28;20055;-37
2022/06/29 12:25:08;;;;;;;3.25;2.90;;;31.00;52.70;;;;;;5115342;28;20043;-36
2022/06/29 12:27:36;;;;;;;4.22;2.88;;;31.10;53.10;;;;;;5104222;28;20105;-37
2022/06/29 12:30:05;;;;;;;4.40;2.60;;;31.00;53.60;;;;;;5095905;28;20048;-37
2022/06/29 12:32:33;;;;;;;6.07;2.97;;;31.00;53.70;;;;;;5094796;28;20044;-36
2022/06/29 12:35:00;;;;;;;5.70;2.55;;;31.10;53.30;;;;;;5107482;28;20075;-36
2022/06/29 12:37:27;;;;;;;5.35;3.03;;;31.10;54.10;;;;;;5103205;28;20510;-36
2022/06/29 12:39:54;;;;;;;4.85;2.95;;;31.30;53.50;;;;;;5094937;28;20105;-37
2022/06/29 12:42:21;;;;;;;4.57;3.13;;;31.40;53.10;;;;;;5093138;28;20404;-36
2022/06/29 12:44:49;;;;;;;7.60;3.60;;;31.40;52.30;;;;;;5095564;28;20081;-37
2022/06/29 12:47:16;;;;;;;7.00;3.38;;;31.30;52.10;;;;;;5095583;28;20449;-36
2022/06/29 12:49:44;;;;;;;7.30;3.00;;;31.20;51.50;;;;;;5094727;28;20048;-36
2022/06/29 12:52:11;;;;;;;5.55;3.10;;;31.10;52.10;;;;;;5104514;27;20518;-37
2022/06/29 12:54:37;;;;;;;8.70;3.22;;;31.20;52.70;;;;;;5101385;28;20051;-38
2022/06/29 12:57:05;;;;;;;4.70;2.72;;;31.30;52.80;;;;;;5110684;27;20100;-36
2022/06/29 12:59:38;;;;;;;5.55;3.20;;;31.40;52.90;;;;;;5097739;28;20469;-36
2022/06/29 13:02:05;;;;;;;3.03;2.70;;;31.60;52.10;;;;;;5114849;28;20104;-36
2022/06/29 13:04:31;;;;;;;9.65;3.08;;;31.70;52.10;;;;;;5108261;28;20109;-37
2022/06/29 13:06:59;;;;;;;7.28;3.22;;;31.80;51.60;;;;;;5110143;28;20076;-37
2022/06/29 13:09:26;;;;;;;3.80;2.72;;;31.90;51.30;;;;;;5101449;27;20401;-37
2022/06/29 13:11:53;;;;;;;4.63;2.50;;;31.80;51.20;;;;;;5106269;28;20040;-35